sensor_id;sensor_type;location;lat;lon;timestamp;P1;durP1;ratioP1;P2;durP2;ratioP2
21731;SDS011;11028;51.156;17.130;2022-08-01T00:05:53;7.78;;;4.80;;
21731;SDS011;11028;51.156;17.130;2022-08-01T00:13:10;7.07;;;5.70;;
21731;SDS011;11028;51.156;17.130;2022-08-01T00:20:27;7.88;;;6.15;;
21731;SDS011;11028;51.156;17.130;2022-08-01T00:27:46;7.20;;;5.03;;
21731;SDS011;11028;51.156;17.130;2022-08-01T00:35:03;8.02;;;5.28;;
21731;SDS011;11028;51.156;17.130;2022-08-01T00:42:21;5.75;;;4.60;;
21731;SDS011;11028;51.156;17.130;2022-08-01T00:49:40;6.30;;;4.40;;
21731;SDS011;11028;51.156;17.130;2022-08-01T00:56:57;5.45;;;4.10;;
21731;SDS011;11028;51.156;17.130;2022-08-01T01:04:14;8.32;;;4.70;;
21731;SDS011;11028;51.156;17.130;2022-08-01T01:11:35;5.63;;;5.07;;
21731;SDS011;11028;51.156;17.130;2022-08-01T01:18:57;8.70;;;6.03;;
21731;SDS011;11028;51.156;17.130;2022-08-01T01:26:23;6.47;;;5.07;;
21731;SDS011;11028;51.156;17.130;2022-08-01T01:33:47;6.07;;;4.90;;
21731;SDS011;11028;51.156;17.130;2022-08-01T01:41:05;6.80;;;4.60;;
21731;SDS011;11028;51.156;17.130;2022-08-01T01:48:22;9.25;;;5.38;;
21731;SDS011;11028;51.156;17.130;2022-08-01T01:55:43;7.82;;;5.20;;
21731;SDS011;11028;51.156;17.130;2022-08-01T02:03:01;7.88;;;5.53;;
21731;SDS011;11028;51.156;17.130;2022-08-01T02:10:23;9.65;;;5.50;;
21731;SDS011;11028;51.156;17.130;2022-08-01T02:17:43;6.78;;;5.20;;
21731;SDS011;11028;51.156;17.130;2022-08-01T02:25:02;6.72;;;5.13;;
21731;SDS011;11028;51.156;17.130;2022-08-01T02:32:23;6.72;;;5.50;;
21731;SDS011;11028;51.156;17.130;2022-08-01T02:39:44;8.93;;;5.30;;
21731;SDS011;11028;51.156;17.130;2022-08-01T02:47:04;7.07;;;5.15;;
21731;SDS011;11028;51.156;17.130;2022-08-01T02:54:21;10.30;;;5.53;;
21731;SDS011;11028;51.156;17.130;2022-08-01T03:01:40;6.22;;;5.25;;
21731;SDS011;11028;51.156;17.130;2022-08-01T03:09:00;6.13;;;5.50;;
21731;SDS011;11028;51.156;17.130;2022-08-01T03:16:18;7.15;;;5.70;;
21731;SDS011;11028;51.156;17.130;2022-08-01T03:23:38;10.02;;;6.30;;
21731;SDS011;11028;51.156;17.130;2022-08-01T03:30:55;7.50;;;5.88;;
21731;SDS011;11028;51.156;17.130;2022-08-01T03:38:13;9.68;;;5.68;;
21731;SDS011;11028;51.156;17.130;2022-08-01T03:45:36;7.13;;;5.65;;
21731;SDS011;11028;51.156;17.130;2022-08-01T03:52:56;9.02;;;6.65;;
21731;SDS011;11028;51.156;17.130;2022-08-01T04:00:14;10.00;;;5.88;;
21731;SDS011;11028;51.156;17.130;2022-08-01T04:07:34;8.18;;;6.07;;
21731;SDS011;11028;51.156;17.130;2022-08-01T04:14:54;12.30;;;6.40;;
21731;SDS011;11028;51.156;17.130;2022-08-01T04:22:11;6.80;;;5.65;;
21731;SDS011;11028;51.156;17.130;2022-08-01T04:29:32;10.38;;;5.68;;
21731;SDS011;11028;51.156;17.130;2022-08-01T04:36:49;11.00;;;5.97;;
21731;SDS011;11028;51.156;17.130;2022-08-01T04:44:07;8.98;;;6.50;;
21731;SDS011;11028;51.156;17.130;2022-08-01T04:51:26;7.57;;;6.13;;
21731;SDS011;11028;51.156;17.130;2022-08-01T04:58:43;13.25;;;6.07;;
21731;SDS011;11028;51.156;17.130;2022-08-01T05:06:00;12.82;;;5.90;;
21731;SDS011;11028;51.156;17.130;2022-08-01T05:13:19;6.57;;;5.68;;
21731;SDS011;11028;51.156;17.130;2022-08-01T05:20:36;11.20;;;6.10;;
21731;SDS011;11028;51.156;17.130;2022-08-01T05:27:53;11.88;;;6.10;;
21731;SDS011;11028;51.156;17.130;2022-08-01T05:35:11;8.43;;;5.47;;
21731;SDS011;11028;51.156;17.130;2022-08-01T05:42:28;8.48;;;6.03;;
21731;SDS011;11028;51.156;17.130;2022-08-01T05:49:45;9.20;;;5.95;;
21731;SDS011;11028;51.156;17.130;2022-08-01T05:57:04;9.13;;;5.80;;
21731;SDS011;11028;51.156;17.130;2022-08-01T06:04:21;14.40;;;6.28;;
21731;SDS011;11028;51.156;17.130;2022-08-01T06:11:38;9.63;;;6.28;;
21731;SDS011;11028;51.156;17.130;2022-08-01T06:18:56;8.98;;;6.90;;
21731;SDS011;11028;51.156;17.130;2022-08-01T06:26:13;12.25;;;7.30;;
21731;SDS011;11028;51.156;17.130;2022-08-01T06:33:30;16.33;;;8.45;;
21731;SDS011;11028;51.156;17.130;2022-08-01T06:40:49;11.75;;;7.22;;
21731;SDS011;11028;51.156;17.130;2022-08-01T06:48:06;13.50;;;7.45;;
21731;SDS011;11028;51.156;17.130;2022-08-01T06:55:23;12.10;;;6.93;;
21731;SDS011;11028;51.156;17.130;2022-08-01T07:02:41;15.90;;;6.70;;
21731;SDS011;11028;51.156;17.130;2022-08-01T07:09:59;10.68;;;6.57;;
21731;SDS011;11028;51.156;17.130;2022-08-01T07:17:15;10.15;;;5.60;;
21731;SDS011;11028;51.156;17.130;2022-08-01T07:24:34;14.38;;;7.47;;
21731;SDS011;11028;51.156;17.130;2022-08-01T07:31:50;10.57;;;5.65;;
21731;SDS011;11028;51.156;17.130;2022-08-01T07:39:08;10.02;;;5.07;;
21731;SDS011;11028;51.156;17.130;2022-08-01T07:46:26;6.18;;;4.75;;
21731;SDS011;11028;51.156;17.130;2022-08-01T07:53:45;10.65;;;4.80;;
21731;SDS011;11028;51.156;17.130;2022-08-01T08:01:02;7.60;;;4.50;;
21731;SDS011;11028;51.156;17.130;2022-08-01T08:08:20;6.57;;;4.40;;
21731;SDS011;11028;51.156;17.130;2022-08-01T08:15:38;6.93;;;4.28;;
21731;SDS011;11028;51.156;17.130;2022-08-01T08:22:55;8.38;;;4.60;;
21731;SDS011;11028;51.156;17.130;2022-08-01T08:30:14;8.32;;;5.03;;
21731;SDS011;11028;51.156;17.130;2022-08-01T08:37:31;6.00;;;4.68;;
21731;SDS011;11028;51.156;17.130;2022-08-01T08:44:48;5.57;;;4.95;;
21731;SDS011;11028;51.156;17.130;2022-08-01T08:52:06;21.75;;;13.32;;
21731;SDS011;11028;51.156;17.130;2022-08-01T08:59:25;5.82;;;4.40;;
21731;SDS011;11028;51.156;17.130;2022-08-01T09:06:43;9.02;;;4.47;;
21731;SDS011;11028;51.156;17.130;2022-08-01T09:14:05;6.43;;;4.57;;
21731;SDS011;11028;51.156;17.130;2022-08-01T09:21:27;4.82;;;4.05;;
21731;SDS011;11028;51.156;17.130;2022-08-01T09:28:44;5.22;;;4.72;;
21731;SDS011;11028;51.156;17.130;2022-08-01T09:36:03;6.32;;;3.88;;
21731;SDS011;11028;51.156;17.130;2022-08-01T09:43:21;7.68;;;4.10;;
21731;SDS011;11028;51.156;17.130;2022-08-01T09:50:39;5.43;;;3.15;;
21731;SDS011;11028;51.156;17.130;2022-08-01T09:57:58;14.27;;;4.22;;
21731;SDS011;11028;51.156;17.130;2022-08-01T10:05:16;5.88;;;4.10;;
21731;SDS011;11028;51.156;17.130;2022-08-01T10:12:35;6.47;;;3.90;;
21731;SDS011;11028;51.156;17.130;2022-08-01T10:19:54;4.78;;;3.67;;
21731;SDS011;11028;51.156;17.130;2022-08-01T10:27:13;6.43;;;3.45;;
21731;SDS011;11028;51.156;17.130;2022-08-01T10:34:33;4.85;;;4.07;;
21731;SDS011;11028;51.156;17.130;2022-08-01T10:41:51;6.00;;;5.40;;
21731;SDS011;11028;51.156;17.130;2022-08-01T10:49:10;4.93;;;3.38;;
21731;SDS011;11028;51.156;17.130;2022-08-01T10:56:38;8.02;;;3.08;;
21731;SDS011;11028;51.156;17.130;2022-08-01T11:03:57;3.90;;;3.10;;
21731;SDS011;11028;51.156;17.130;2022-08-01T11:11:21;3.95;;;3.40;;
21731;SDS011;11028;51.156;17.130;2022-08-01T11:18:38;3.92;;;3.22;;
21731;SDS011;11028;51.156;17.130;2022-08-01T11:26:08;5.35;;;3.28;;
21731;SDS011;11028;51.156;17.130;2022-08-01T11:41:12;4.38;;;3.53;;
21731;SDS011;11028;51.156;17.130;2022-08-01T11:48:29;4.30;;;3.58;;
21731;SDS011;11028;51.156;17.130;2022-08-01T11:55:46;5.35;;;3.42;;
21731;SDS011;11028;51.156;17.130;2022-08-01T12:03:06;5.70;;;3.80;;
21731;SDS011;11028;51.156;17.130;2022-08-01T12:10:24;4.70;;;3.28;;
21731;SDS011;11028;51.156;17.130;2022-08-01T12:17:44;6.25;;;3.08;;
21731;SDS011;11028;51.156;17.130;2022-08-01T12:25:07;3.67;;;3.17;;
21731;SDS011;11028;51.156;17.130;2022-08-01T12:32:27;6.00;;;2.70;;
21731;SDS011;11028;51.156;17.130;2022-08-01T12:39:46;5.20;;;3.60;;
21731;SDS011;11028;51.156;17.130;2022-08-01T12:47:05;4.00;;;3.55;;
21731;SDS011;11028;51.156;17.130;2022-08-01T12:54:23;6.00;;;3.33;;
21731;SDS011;11028;51.156;17.130;2022-08-01T13:01:41;6.13;;;3.28;;
21731;SDS011;11028;51.156;17.130;2022-08-01T13:09:05;3.63;;;3.08;;
21731;SDS011;11028;51.156;17.130;2022-08-01T13:16:22;6.78;;;3.60;;
21731;SDS011;11028;51.156;17.130;2022-08-01T13:31:18;6.40;;;4.07;;
21731;SDS011;11028;51.156;17.130;2022-08-01T13:38:35;6.90;;;4.28;;
21731;SDS011;11028;51.156;17.130;2022-08-01T13:46:06;5.80;;;5.25;;
21731;SDS011;11028;51.156;17.130;2022-08-01T13:53:24;4.85;;;4.40;;
21731;SDS011;11028;51.156;17.130;2022-08-01T14:00:41;4.25;;;3.85;;
21731;SDS011;11028;51.156;17.130;2022-08-01T14:07:58;4.50;;;3.75;;
21731;SDS011;11028;51.156;17.130;2022-08-01T14:15:16;4.65;;;3.50;;
21731;SDS011;11028;51.156;17.130;2022-08-01T14:22:33;3.47;;;3.17;;
21731;SDS011;11028;51.156;17.130;2022-08-01T14:29:51;3.78;;;3.38;;
21731;SDS011;11028;51.156;17.130;2022-08-01T14:37:09;3.08;;;2.80;;
21731;SDS011;11028;51.156;17.130;2022-08-01T14:44:26;6.75;;;3.13;;
21731;SDS011;11028;51.156;17.130;2022-08-01T14:51:43;4.35;;;3.60;;
21731;SDS011;11028;51.156;17.130;2022-08-01T14:59:01;5.68;;;3.30;;
21731;SDS011;11028;51.156;17.130;2022-08-01T15:06:18;3.40;;;2.70;;
21731;SDS011;11028;51.156;17.130;2022-08-01T15:13:36;3.20;;;2.60;;
21731;SDS011;11028;51.156;17.130;2022-08-01T15:20:54;2.28;;;2.10;;
21731;SDS011;11028;51.156;17.130;2022-08-01T15:28:12;7.20;;;4.00;;
21731;SDS011;11028;51.156;17.130;2022-08-01T15:35:29;2.60;;;2.40;;
21731;SDS011;11028;51.156;17.130;2022-08-01T15:42:47;6.32;;;3.00;;
21731;SDS011;11028;51.156;17.130;2022-08-01T15:50:04;2.80;;;1.80;;
21731;SDS011;11028;51.156;17.130;2022-08-01T15:57:22;3.42;;;1.98;;
21731;SDS011;11028;51.156;17.130;2022-08-01T16:04:40;1.90;;;1.70;;
21731;SDS011;11028;51.156;17.130;2022-08-01T16:11:57;5.72;;;4.18;;
21731;SDS011;11028;51.156;17.130;2022-08-01T16:19:14;5.68;;;1.58;;
21731;SDS011;11028;51.156;17.130;2022-08-01T16:26:32;1.58;;;1.13;;
21731;SDS011;11028;51.156;17.130;2022-08-01T16:33:49;1.35;;;1.05;;
21731;SDS011;11028;51.156;17.130;2022-08-01T16:41:06;2.15;;;1.40;;
21731;SDS011;11028;51.156;17.130;2022-08-01T16:48:25;1.40;;;1.30;;
21731;SDS011;11028;51.156;17.130;2022-08-01T16:55:42;5.20;;;1.13;;
21731;SDS011;11028;51.156;17.130;2022-08-01T17:03:00;0.90;;;0.90;;
21731;SDS011;11028;51.156;17.130;2022-08-01T17:10:19;7.00;;;4.63;;
21731;SDS011;11028;51.156;17.130;2022-08-01T17:17:36;3.00;;;2.20;;
21731;SDS011;11028;51.156;17.130;2022-08-01T17:24:53;3.08;;;1.10;;
21731;SDS011;11028;51.156;17.130;2022-08-01T17:32:12;4.70;;;1.40;;
21731;SDS011;11028;51.156;17.130;2022-08-01T17:39:29;2.15;;;2.03;;
21731;SDS011;11028;51.156;17.130;2022-08-01T17:46:46;2.83;;;1.70;;
21731;SDS011;11028;51.156;17.130;2022-08-01T17:54:04;1.98;;;1.60;;
21731;SDS011;11028;51.156;17.130;2022-08-01T18:01:21;2.58;;;1.88;;
21731;SDS011;11028;51.156;17.130;2022-08-01T18:08:39;3.50;;;2.20;;
21731;SDS011;11028;51.156;17.130;2022-08-01T18:15:58;4.72;;;2.53;;
21731;SDS011;11028;51.156;17.130;2022-08-01T18:23:15;2.85;;;2.33;;
21731;SDS011;11028;51.156;17.130;2022-08-01T18:30:36;4.78;;;3.55;;
21731;SDS011;11028;51.156;17.130;2022-08-01T18:37:55;8.60;;;4.15;;
21731;SDS011;11028;51.156;17.130;2022-08-01T18:45:12;4.13;;;2.65;;
21731;SDS011;11028;51.156;17.130;2022-08-01T18:52:29;2.58;;;2.35;;
21731;SDS011;11028;51.156;17.130;2022-08-01T18:59:48;2.65;;;2.45;;
21731;SDS011;11028;51.156;17.130;2022-08-01T19:07:05;2.70;;;2.50;;
21731;SDS011;11028;51.156;17.130;2022-08-01T19:14:21;3.40;;;2.55;;
21731;SDS011;11028;51.156;17.130;2022-08-01T19:21:39;3.88;;;2.58;;
21731;SDS011;11028;51.156;17.130;2022-08-01T19:28:58;3.13;;;2.85;;
21731;SDS011;11028;51.156;17.130;2022-08-01T19:36:17;3.25;;;2.95;;
21731;SDS011;11028;51.156;17.130;2022-08-01T19:43:36;3.28;;;2.97;;
21731;SDS011;11028;51.156;17.130;2022-08-01T19:50:53;3.83;;;3.00;;
21731;SDS011;11028;51.156;17.130;2022-08-01T19:58:10;3.25;;;2.70;;
21731;SDS011;11028;51.156;17.130;2022-08-01T20:05:29;8.88;;;6.10;;
21731;SDS011;11028;51.156;17.130;2022-08-01T20:12:45;4.50;;;3.75;;
21731;SDS011;11028;51.156;17.130;2022-08-01T20:20:03;6.68;;;4.15;;
21731;SDS011;11028;51.156;17.130;2022-08-01T20:27:24;6.47;;;4.65;;
21731;SDS011;11028;51.156;17.130;2022-08-01T20:34:42;6.03;;;4.63;;
21731;SDS011;11028;51.156;17.130;2022-08-01T20:41:58;4.78;;;3.75;;
21731;SDS011;11028;51.156;17.130;2022-08-01T20:49:18;3.50;;;3.20;;
21731;SDS011;11028;51.156;17.130;2022-08-01T20:56:36;5.50;;;3.63;;
21731;SDS011;11028;51.156;17.130;2022-08-01T21:03:59;3.22;;;2.92;;
21731;SDS011;11028;51.156;17.130;2022-08-01T21:11:26;3.88;;;3.20;;
21731;SDS011;11028;51.156;17.130;2022-08-01T21:18:53;3.58;;;3.28;;
21731;SDS011;11028;51.156;17.130;2022-08-01T21:26:11;4.80;;;3.53;;
21731;SDS011;11028;51.156;17.130;2022-08-01T21:33:30;4.60;;;3.40;;
21731;SDS011;11028;51.156;17.130;2022-08-01T21:40:47;5.00;;;3.65;;
21731;SDS011;11028;51.156;17.130;2022-08-01T21:48:05;7.47;;;5.78;;
21731;SDS011;11028;51.156;17.130;2022-08-01T21:55:27;6.88;;;3.78;;
21731;SDS011;11028;51.156;17.130;2022-08-01T22:02:49;4.30;;;3.90;;
21731;SDS011;11028;51.156;17.130;2022-08-01T22:10:09;6.00;;;4.00;;
21731;SDS011;11028;51.156;17.130;2022-08-01T22:17:31;4.47;;;3.80;;
21731;SDS011;11028;51.156;17.130;2022-08-01T22:24:49;5.18;;;3.90;;
21731;SDS011;11028;51.156;17.130;2022-08-01T22:32:06;4.53;;;4.13;;
21731;SDS011;11028;51.156;17.130;2022-08-01T22:39:25;6.90;;;4.18;;
21731;SDS011;11028;51.156;17.130;2022-08-01T22:46:43;4.88;;;4.38;;
21731;SDS011;11028;51.156;17.130;2022-08-01T22:54:04;8.02;;;4.38;;
21731;SDS011;11028;51.156;17.130;2022-08-01T23:01:25;4.80;;;4.30;;
21731;SDS011;11028;51.156;17.130;2022-08-01T23:08:44;7.82;;;4.60;;
21731;SDS011;11028;51.156;17.130;2022-08-01T23:16:02;5.60;;;4.25;;
21731;SDS011;11028;51.156;17.130;2022-08-01T23:23:21;7.95;;;4.35;;
21731;SDS011;11028;51.156;17.130;2022-08-01T23:30:38;7.30;;;4.53;;
21731;SDS011;11028;51.156;17.130;2022-08-01T23:37:56;5.95;;;4.60;;
21731;SDS011;11028;51.156;17.130;2022-08-01T23:45:15;5.32;;;4.70;;
21731;SDS011;11028;51.156;17.130;2022-08-01T23:52:32;4.88;;;4.35;;
21731;SDS011;11028;51.156;17.130;2022-08-01T23:59:49;4.82;;;4.15;;
